sensor_id;sensor_type;location;lat;lon;timestamp;temperature;humidity
27162;DHT22;54464;50.558;9.704;2023-02-01T00:00:54;3.30;99.90
27162;DHT22;54464;50.558;9.704;2023-02-01T00:03:20;3.40;99.90
27162;DHT22;54464;50.558;9.704;2023-02-01T00:05:55;3.40;99.90
27162;DHT22;54464;50.558;9.704;2023-02-01T00:08:22;3.40;99.90
27162;DHT22;54464;50.558;9.704;2023-02-01T00:10:47;3.50;99.90
27162;DHT22;54464;50.558;9.704;2023-02-01T00:13:13;3.50;99.90
27162;DHT22;54464;50.558;9.704;2023-02-01T00:15:39;3.40;99.90
27162;DHT22;54464;50.558;9.704;2023-02-01T00:18:04;3.40;99.90
27162;DHT22;54464;50.558;9.704;2023-02-01T00:20:30;3.40;99.90
27162;DHT22;54464;50.558;9.704;2023-02-01T00:22:55;3.50;99.90
27162;DHT22;54464;50.558;9.704;2023-02-01T00:25:21;3.40;99.90
27162;DHT22;54464;50.558;9.704;2023-02-01T00:27:50;3.50;99.90
27162;DHT22;54464;50.558;9.704;2023-02-01T00:30:17;3.50;99.90
27162;DHT22;54464;50.558;9.704;2023-02-01T00:32:42;3.50;99.90
27162;DHT22;54464;50.558;9.704;2023-02-01T00:35:08;3.40;99.90
27162;DHT22;54464;50.558;9.704;2023-02-01T00:37:34;3.50;99.90
27162;DHT22;54464;50.558;9.704;2023-02-01T00:40:00;3.50;99.90
27162;DHT22;54464;50.558;9.704;2023-02-01T00:42:25;3.50;99.90
27162;DHT22;54464;50.558;9.704;2023-02-01T00:44:51;3.50;99.90
27162;DHT22;54464;50.558;9.704;2023-02-01T00:47:16;3.50;99.90
27162;DHT22;54464;50.558;9.704;2023-02-01T00:49:42;3.50;99.90
27162;DHT22;54464;50.558;9.704;2023-02-01T00:52:08;3.50;99.90
27162;DHT22;54464;50.558;9.704;2023-02-01T00:54:33;3.50;99.90
27162;DHT22;54464;50.558;9.704;2023-02-01T00:57:00;3.50;99.90
27162;DHT22;54464;50.558;9.704;2023-02-01T00:59:25;3.50;99.90
27162;DHT22;54464;50.558;9.704;2023-02-01T01:01:51;3.50;99.90
27162;DHT22;54464;50.558;9.704;2023-02-01T01:04:17;3.50;99.90
27162;DHT22;54464;50.558;9.704;2023-02-01T01:06:42;3.50;99.90
27162;DHT22;54464;50.558;9.704;2023-02-01T01:09:09;3.50;99.90
27162;DHT22;54464;50.558;9.704;2023-02-01T01:11:36;3.50;99.90
27162;DHT22;54464;50.558;9.704;2023-02-01T01:14:05;3.50;99.90
27162;DHT22;54464;50.558;9.704;2023-02-01T01:16:32;3.50;99.90
27162;DHT22;54464;50.558;9.704;2023-02-01T01:18:58;3.50;99.90
27162;DHT22;54464;50.558;9.704;2023-02-01T01:21:25;3.50;99.90
27162;DHT22;54464;50.558;9.704;2023-02-01T01:23:51;3.60;99.90
27162;DHT22;54464;50.558;9.704;2023-02-01T01:26:21;3.60;99.90
27162;DHT22;54464;50.558;9.704;2023-02-01T01:28:48;3.60;99.90
27162;DHT22;54464;50.558;9.704;2023-02-01T01:31:16;3.60;99.90
27162;DHT22;54464;50.558;9.704;2023-02-01T01:33:41;3.60;99.90
27162;DHT22;54464;50.558;9.704;2023-02-01T01:36:10;3.70;99.90
27162;DHT22;54464;50.558;9.704;2023-02-01T01:38:37;3.70;99.90
27162;DHT22;54464;50.558;9.704;2023-02-01T01:41:03;3.70;99.90
27162;DHT22;54464;50.558;9.704;2023-02-01T01:43:56;3.70;99.90
27162;DHT22;54464;50.558;9.704;2023-02-01T01:48:54;3.70;99.90
27162;DHT22;54464;50.558;9.704;2023-02-01T01:51:23;3.70;99.90
27162;DHT22;54464;50.558;9.704;2023-02-01T01:54:14;3.70;99.90
27162;DHT22;54464;50.558;9.704;2023-02-01T01:56:44;3.70;99.90
27162;DHT22;54464;50.558;9.704;2023-02-01T01:59:11;3.70;99.90
27162;DHT22;54464;50.558;9.704;2023-02-01T02:01:38;3.70;99.90
27162;DHT22;54464;50.558;9.704;2023-02-01T02:04:04;3.70;99.90
27162;DHT22;54464;50.558;9.704;2023-02-01T02:06:43;3.70;99.90
27162;DHT22;54464;50.558;9.704;2023-02-01T02:09:13;3.70;99.90
27162;DHT22;54464;50.558;9.704;2023-02-01T02:11:40;3.70;99.90
27162;DHT22;54464;50.558;9.704;2023-02-01T02:14:08;3.70;99.90
27162;DHT22;54464;50.558;9.704;2023-02-01T02:28:18;3.60;99.90
27162;DHT22;54464;50.558;9.704;2023-02-01T02:41:19;3.60;99.90
27162;DHT22;54464;50.558;9.704;2023-02-01T02:44:32;3.70;99.90
27162;DHT22;54464;50.558;9.704;2023-02-01T02:47:25;3.60;99.90
27162;DHT22;54464;50.558;9.704;2023-02-01T02:53:07;3.70;99.90
27162;DHT22;54464;50.558;9.704;2023-02-01T02:55:55;3.70;99.90
27162;DHT22;54464;50.558;9.704;2023-02-01T02:58:40;3.70;99.90
27162;DHT22;54464;50.558;9.704;2023-02-01T03:01:26;3.70;99.90
27162;DHT22;54464;50.558;9.704;2023-02-01T03:04:11;3.70;99.90
27162;DHT22;54464;50.558;9.704;2023-02-01T03:06:43;3.70;99.90
27162;DHT22;54464;50.558;9.704;2023-02-01T03:09:14;3.70;99.90
27162;DHT22;54464;50.558;9.704;2023-02-01T03:11:44;3.70;99.90
27162;DHT22;54464;50.558;9.704;2023-02-01T03:14:29;3.80;99.90
27162;DHT22;54464;50.558;9.704;2023-02-01T03:17:13;3.70;99.90
27162;DHT22;54464;50.558;9.704;2023-02-01T03:19:46;3.70;99.90
27162;DHT22;54464;50.558;9.704;2023-02-01T03:22:27;3.70;99.90
27162;DHT22;54464;50.558;9.704;2023-02-01T03:25:12;3.70;99.90
27162;DHT22;54464;50.558;9.704;2023-02-01T03:27:50;3.70;99.90
27162;DHT22;54464;50.558;9.704;2023-02-01T03:30:27;3.70;99.90
27162;DHT22;54464;50.558;9.704;2023-02-01T03:32:59;3.70;99.90
27162;DHT22;54464;50.558;9.704;2023-02-01T03:40:36;3.70;99.90
27162;DHT22;54464;50.558;9.704;2023-02-01T03:43:04;3.70;99.90
27162;DHT22;54464;50.558;9.704;2023-02-01T03:45:43;3.70;99.90
27162;DHT22;54464;50.558;9.704;2023-02-01T03:48:10;3.70;99.90
27162;DHT22;54464;50.558;9.704;2023-02-01T03:50:43;3.60;99.90
27162;DHT22;54464;50.558;9.704;2023-02-01T03:53:16;3.70;99.90
27162;DHT22;54464;50.558;9.704;2023-02-01T03:55:43;3.60;99.90
27162;DHT22;54464;50.558;9.704;2023-02-01T03:58:18;3.60;99.90
27162;DHT22;54464;50.558;9.704;2023-02-01T04:00:56;3.70;99.90
27162;DHT22;54464;50.558;9.704;2023-02-01T04:03:22;3.70;99.90
27162;DHT22;54464;50.558;9.704;2023-02-01T04:05:52;3.70;99.90
27162;DHT22;54464;50.558;9.704;2023-02-01T04:08:21;3.70;99.90
27162;DHT22;54464;50.558;9.704;2023-02-01T04:10:46;3.70;99.90
27162;DHT22;54464;50.558;9.704;2023-02-01T04:13:12;3.70;99.90
27162;DHT22;54464;50.558;9.704;2023-02-01T04:15:38;3.70;99.90
27162;DHT22;54464;50.558;9.704;2023-02-01T04:18:04;3.70;99.90
27162;DHT22;54464;50.558;9.704;2023-02-01T04:20:30;3.70;99.90
27162;DHT22;54464;50.558;9.704;2023-02-01T04:22:55;3.70;99.90
27162;DHT22;54464;50.558;9.704;2023-02-01T04:25:21;3.80;99.90
27162;DHT22;54464;50.558;9.704;2023-02-01T04:27:47;3.70;99.90
27162;DHT22;54464;50.558;9.704;2023-02-01T04:30:13;3.70;99.90
27162;DHT22;54464;50.558;9.704;2023-02-01T04:32:39;3.70;99.90
27162;DHT22;54464;50.558;9.704;2023-02-01T04:35:05;3.70;99.90
27162;DHT22;54464;50.558;9.704;2023-02-01T04:37:31;3.70;99.90
27162;DHT22;54464;50.558;9.704;2023-02-01T04:39:57;3.70;99.90
27162;DHT22;54464;50.558;9.704;2023-02-01T04:42:22;3.70;99.90
27162;DHT22;54464;50.558;9.704;2023-02-01T04:44:48;3.70;99.90
27162;DHT22;54464;50.558;9.704;2023-02-01T04:47:14;3.70;99.90
27162;DHT22;54464;50.558;9.704;2023-02-01T04:49:41;3.70;99.90
27162;DHT22;54464;50.558;9.704;2023-02-01T04:52:07;3.70;99.90
27162;DHT22;54464;50.558;9.704;2023-02-01T04:54:32;3.60;99.90
27162;DHT22;54464;50.558;9.704;2023-02-01T04:56:58;3.60;99.90
27162;DHT22;54464;50.558;9.704;2023-02-01T04:59:24;3.60;99.90
27162;DHT22;54464;50.558;9.704;2023-02-01T05:01:50;3.70;99.90
27162;DHT22;54464;50.558;9.704;2023-02-01T05:04:15;3.60;99.90
27162;DHT22;54464;50.558;9.704;2023-02-01T05:06:44;3.60;99.90
27162;DHT22;54464;50.558;9.704;2023-02-01T05:09:10;3.60;99.90
27162;DHT22;54464;50.558;9.704;2023-02-01T05:11:35;3.60;99.90
27162;DHT22;54464;50.558;9.704;2023-02-01T05:14:20;3.60;99.90
27162;DHT22;54464;50.558;9.704;2023-02-01T05:16:46;3.60;99.90
27162;DHT22;54464;50.558;9.704;2023-02-01T05:19:11;3.60;99.90
27162;DHT22;54464;50.558;9.704;2023-02-01T05:21:38;3.60;99.90
27162;DHT22;54464;50.558;9.704;2023-02-01T05:24:04;3.60;99.90
27162;DHT22;54464;50.558;9.704;2023-02-01T05:26:37;3.50;99.90
27162;DHT22;54464;50.558;9.704;2023-02-01T05:29:04;3.50;99.90
27162;DHT22;54464;50.558;9.704;2023-02-01T05:31:29;3.60;99.90
27162;DHT22;54464;50.558;9.704;2023-02-01T05:33:55;3.50;99.90
27162;DHT22;54464;50.558;9.704;2023-02-01T05:36:24;3.60;99.90
27162;DHT22;54464;50.558;9.704;2023-02-01T05:38:49;3.50;99.90
27162;DHT22;54464;50.558;9.704;2023-02-01T05:41:15;3.60;99.90
27162;DHT22;54464;50.558;9.704;2023-02-01T05:43:40;3.50;99.90
27162;DHT22;54464;50.558;9.704;2023-02-01T05:46:06;3.60;99.90
27162;DHT22;54464;50.558;9.704;2023-02-01T05:48:32;3.60;99.90
27162;DHT22;54464;50.558;9.704;2023-02-01T05:50:57;3.60;99.90
27162;DHT22;54464;50.558;9.704;2023-02-01T05:53:23;3.60;99.90
27162;DHT22;54464;50.558;9.704;2023-02-01T05:55:49;3.50;99.90
27162;DHT22;54464;50.558;9.704;2023-02-01T05:58:14;3.50;99.90
27162;DHT22;54464;50.558;9.704;2023-02-01T06:00:40;3.50;99.90
27162;DHT22;54464;50.558;9.704;2023-02-01T06:03:06;3.50;99.90
27162;DHT22;54464;50.558;9.704;2023-02-01T06:05:32;3.50;99.90
27162;DHT22;54464;50.558;9.704;2023-02-01T06:07:57;3.50;99.90
27162;DHT22;54464;50.558;9.704;2023-02-01T06:10:23;3.50;99.90
27162;DHT22;54464;50.558;9.704;2023-02-01T06:12:49;3.50;99.90
27162;DHT22;54464;50.558;9.704;2023-02-01T06:15:15;3.50;99.90
27162;DHT22;54464;50.558;9.704;2023-02-01T06:17:42;3.50;99.90
27162;DHT22;54464;50.558;9.704;2023-02-01T06:20:10;3.60;99.90
27162;DHT22;54464;50.558;9.704;2023-02-01T06:22:36;3.60;99.90
27162;DHT22;54464;50.558;9.704;2023-02-01T06:25:06;3.70;99.90
27162;DHT22;54464;50.558;9.704;2023-02-01T06:27:33;3.70;99.90
27162;DHT22;54464;50.558;9.704;2023-02-01T06:29:58;3.60;99.90
27162;DHT22;54464;50.558;9.704;2023-02-01T06:32:24;3.60;99.90
27162;DHT22;54464;50.558;9.704;2023-02-01T06:34:50;3.60;99.90
27162;DHT22;54464;50.558;9.704;2023-02-01T06:37:21;3.60;99.90
27162;DHT22;54464;50.558;9.704;2023-02-01T06:39:47;3.70;99.90
27162;DHT22;54464;50.558;9.704;2023-02-01T06:42:13;3.70;99.90
27162;DHT22;54464;50.558;9.704;2023-02-01T06:44:38;3.70;99.90
27162;DHT22;54464;50.558;9.704;2023-02-01T06:47:04;3.70;99.90
27162;DHT22;54464;50.558;9.704;2023-02-01T06:49:30;3.70;99.90
27162;DHT22;54464;50.558;9.704;2023-02-01T06:51:56;3.70;99.90
27162;DHT22;54464;50.558;9.704;2023-02-01T06:54:22;3.70;99.90
27162;DHT22;54464;50.558;9.704;2023-02-01T06:56:47;3.70;99.90
27162;DHT22;54464;50.558;9.704;2023-02-01T06:59:13;3.70;99.90
27162;DHT22;54464;50.558;9.704;2023-02-01T07:01:39;3.70;99.90
27162;DHT22;54464;50.558;9.704;2023-02-01T07:04:04;3.80;99.90
27162;DHT22;54464;50.558;9.704;2023-02-01T07:06:30;3.80;99.90
27162;DHT22;54464;50.558;9.704;2023-02-01T07:08:57;3.90;99.90
27162;DHT22;54464;50.558;9.704;2023-02-01T07:11:22;3.90;99.90
27162;DHT22;54464;50.558;9.704;2023-02-01T07:13:48;3.80;99.90
27162;DHT22;54464;50.558;9.704;2023-02-01T07:16:17;3.90;99.90
27162;DHT22;54464;50.558;9.704;2023-02-01T07:18:43;3.90;99.90
27162;DHT22;54464;50.558;9.704;2023-02-01T07:21:09;3.90;99.90
27162;DHT22;54464;50.558;9.704;2023-02-01T07:23:35;3.90;99.90
27162;DHT22;54464;50.558;9.704;2023-02-01T07:26:03;4.00;99.90
27162;DHT22;54464;50.558;9.704;2023-02-01T07:28:31;4.00;99.90
27162;DHT22;54464;50.558;9.704;2023-02-01T07:33:29;4.10;99.90
27162;DHT22;54464;50.558;9.704;2023-02-01T07:35:55;4.10;99.90
27162;DHT22;54464;50.558;9.704;2023-02-01T07:38:20;4.10;99.90
27162;DHT22;54464;50.558;9.704;2023-02-01T07:40:48;4.10;99.90
27162;DHT22;54464;50.558;9.704;2023-02-01T07:43:13;4.20;99.90
27162;DHT22;54464;50.558;9.704;2023-02-01T07:45:39;4.20;99.90
27162;DHT22;54464;50.558;9.704;2023-02-01T07:48:04;4.20;99.90
27162;DHT22;54464;50.558;9.704;2023-02-01T07:50:30;4.20;99.90
27162;DHT22;54464;50.558;9.704;2023-02-01T07:52:59;4.20;99.90
27162;DHT22;54464;50.558;9.704;2023-02-01T07:55:26;4.20;99.90
27162;DHT22;54464;50.558;9.704;2023-02-01T07:57:51;4.20;99.90
27162;DHT22;54464;50.558;9.704;2023-02-01T08:00:18;4.10;99.90
27162;DHT22;54464;50.558;9.704;2023-02-01T08:03:03;4.20;99.90
27162;DHT22;54464;50.558;9.704;2023-02-01T08:05:29;4.20;99.90
27162;DHT22;54464;50.558;9.704;2023-02-01T08:07:55;4.30;99.90
27162;DHT22;54464;50.558;9.704;2023-02-01T08:10:21;4.30;99.90
27162;DHT22;54464;50.558;9.704;2023-02-01T08:12:46;4.30;99.90
27162;DHT22;54464;50.558;9.704;2023-02-01T08:15:14;4.30;99.90
27162;DHT22;54464;50.558;9.704;2023-02-01T08:17:50;4.30;99.90
27162;DHT22;54464;50.558;9.704;2023-02-01T08:20:17;4.30;99.90
27162;DHT22;54464;50.558;9.704;2023-02-01T08:22:43;4.30;99.90
27162;DHT22;54464;50.558;9.704;2023-02-01T08:25:09;4.30;99.90
27162;DHT22;54464;50.558;9.704;2023-02-01T08:27:35;4.30;99.90
27162;DHT22;54464;50.558;9.704;2023-02-01T08:30:01;4.30;99.90
27162;DHT22;54464;50.558;9.704;2023-02-01T08:32:27;4.30;99.90
27162;DHT22;54464;50.558;9.704;2023-02-01T08:34:53;4.40;99.90
27162;DHT22;54464;50.558;9.704;2023-02-01T08:37:19;4.30;99.90
27162;DHT22;54464;50.558;9.704;2023-02-01T08:39:45;4.40;99.90
27162;DHT22;54464;50.558;9.704;2023-02-01T08:42:11;4.40;99.90
27162;DHT22;54464;50.558;9.704;2023-02-01T08:44:56;4.40;99.90
27162;DHT22;54464;50.558;9.704;2023-02-01T08:47:22;4.40;99.90
27162;DHT22;54464;50.558;9.704;2023-02-01T08:49:47;4.30;99.90
27162;DHT22;54464;50.558;9.704;2023-02-01T08:52:13;4.30;99.90
27162;DHT22;54464;50.558;9.704;2023-02-01T08:54:39;4.30;99.90
27162;DHT22;54464;50.558;9.704;2023-02-01T08:57:06;4.30;99.90
27162;DHT22;54464;50.558;9.704;2023-02-01T08:59:32;4.30;99.90
27162;DHT22;54464;50.558;9.704;2023-02-01T09:01:58;4.40;99.90
27162;DHT22;54464;50.558;9.704;2023-02-01T09:04:24;4.30;99.90
27162;DHT22;54464;50.558;9.704;2023-02-01T09:06:49;4.30;99.90
27162;DHT22;54464;50.558;9.704;2023-02-01T09:09:15;4.40;99.90
27162;DHT22;54464;50.558;9.704;2023-02-01T09:11:40;4.40;99.90
27162;DHT22;54464;50.558;9.704;2023-02-01T09:14:06;4.40;99.90
27162;DHT22;54464;50.558;9.704;2023-02-01T09:16:32;4.40;99.90
27162;DHT22;54464;50.558;9.704;2023-02-01T09:18:58;4.40;99.90
27162;DHT22;54464;50.558;9.704;2023-02-01T09:21:23;4.40;99.90
27162;DHT22;54464;50.558;9.704;2023-02-01T09:23:51;4.40;99.90
27162;DHT22;54464;50.558;9.704;2023-02-01T09:26:17;4.50;99.90
27162;DHT22;54464;50.558;9.704;2023-02-01T09:28:42;4.40;99.90
27162;DHT22;54464;50.558;9.704;2023-02-01T09:31:08;4.40;99.90
27162;DHT22;54464;50.558;9.704;2023-02-01T09:33:34;4.40;99.90
27162;DHT22;54464;50.558;9.704;2023-02-01T09:36:02;4.40;99.90
27162;DHT22;54464;50.558;9.704;2023-02-01T09:38:29;4.40;99.90
27162;DHT22;54464;50.558;9.704;2023-02-01T09:40:55;4.30;99.90
27162;DHT22;54464;50.558;9.704;2023-02-01T09:46:26;4.30;99.90
27162;DHT22;54464;50.558;9.704;2023-02-01T09:49:02;4.30;99.90
27162;DHT22;54464;50.558;9.704;2023-02-01T09:51:40;4.30;99.90
27162;DHT22;54464;50.558;9.704;2023-02-01T09:54:49;4.30;99.90
27162;DHT22;54464;50.558;9.704;2023-02-01T09:57:39;4.30;99.90
27162;DHT22;54464;50.558;9.704;2023-02-01T10:00:22;4.30;99.90
27162;DHT22;54464;50.558;9.704;2023-02-01T10:02:51;4.30;99.90
27162;DHT22;54464;50.558;9.704;2023-02-01T10:05:54;4.30;99.90
27162;DHT22;54464;50.558;9.704;2023-02-01T10:08:24;4.30;99.90
27162;DHT22;54464;50.558;9.704;2023-02-01T10:10:58;4.40;99.90
27162;DHT22;54464;50.558;9.704;2023-02-01T10:16:18;4.40;99.90
27162;DHT22;54464;50.558;9.704;2023-02-01T10:26:57;4.40;99.90
27162;DHT22;54464;50.558;9.704;2023-02-01T10:29:26;4.40;99.90
27162;DHT22;54464;50.558;9.704;2023-02-01T10:31:53;4.40;99.90
27162;DHT22;54464;50.558;9.704;2023-02-01T10:34:21;4.40;99.90
27162;DHT22;54464;50.558;9.704;2023-02-01T10:37:00;4.40;99.90
27162;DHT22;54464;50.558;9.704;2023-02-01T10:39:26;4.40;99.90
27162;DHT22;54464;50.558;9.704;2023-02-01T10:41:52;4.50;99.90
27162;DHT22;54464;50.558;9.704;2023-02-01T10:44:24;4.50;99.90
27162;DHT22;54464;50.558;9.704;2023-02-01T10:46:50;4.50;99.90
27162;DHT22;54464;50.558;9.704;2023-02-01T10:49:22;4.50;99.90
27162;DHT22;54464;50.558;9.704;2023-02-01T10:52:10;4.50;99.90
27162;DHT22;54464;50.558;9.704;2023-02-01T10:54:39;4.50;99.90
27162;DHT22;54464;50.558;9.704;2023-02-01T10:57:10;4.50;99.90
27162;DHT22;54464;50.558;9.704;2023-02-01T10:59:36;4.50;99.90
27162;DHT22;54464;50.558;9.704;2023-02-01T11:02:17;4.50;99.90
27162;DHT22;54464;50.558;9.704;2023-02-01T11:04:44;4.50;99.90
27162;DHT22;54464;50.558;9.704;2023-02-01T11:07:24;4.50;99.90
27162;DHT22;54464;50.558;9.704;2023-02-01T11:09:53;4.50;99.90
27162;DHT22;54464;50.558;9.704;2023-02-01T11:12:32;4.50;99.90
27162;DHT22;54464;50.558;9.704;2023-02-01T11:15:14;4.50;99.90
27162;DHT22;54464;50.558;9.704;2023-02-01T11:17:45;4.50;99.90
27162;DHT22;54464;50.558;9.704;2023-02-01T11:22:59;4.50;99.90
27162;DHT22;54464;50.558;9.704;2023-02-01T11:25:25;4.50;99.90
27162;DHT22;54464;50.558;9.704;2023-02-01T11:27:53;4.50;99.90
27162;DHT22;54464;50.558;9.704;2023-02-01T11:30:33;4.50;99.90
27162;DHT22;54464;50.558;9.704;2023-02-01T11:33:00;4.50;99.90
27162;DHT22;54464;50.558;9.704;2023-02-01T11:35:28;4.50;99.90
27162;DHT22;54464;50.558;9.704;2023-02-01T11:37:58;4.50;99.90
27162;DHT22;54464;50.558;9.704;2023-02-01T11:40:45;4.50;99.90
27162;DHT22;54464;50.558;9.704;2023-02-01T11:46:02;4.60;99.90
27162;DHT22;54464;50.558;9.704;2023-02-01T11:48:30;4.60;99.90
27162;DHT22;54464;50.558;9.704;2023-02-01T11:51:51;4.60;99.90
27162;DHT22;54464;50.558;9.704;2023-02-01T12:06:12;4.70;99.90
27162;DHT22;54464;50.558;9.704;2023-02-01T12:11:51;4.70;99.90
27162;DHT22;54464;50.558;9.704;2023-02-01T12:20:08;4.80;99.90
27162;DHT22;54464;50.558;9.704;2023-02-01T12:25:53;4.80;99.90
27162;DHT22;54464;50.558;9.704;2023-02-01T12:28:40;4.80;99.90
27162;DHT22;54464;50.558;9.704;2023-02-01T12:34:01;4.80;99.90
27162;DHT22;54464;50.558;9.704;2023-02-01T12:44:50;4.90;99.90
27162;DHT22;54464;50.558;9.704;2023-02-01T12:47:33;4.90;99.90
27162;DHT22;54464;50.558;9.704;2023-02-01T12:53:06;4.80;99.90
27162;DHT22;54464;50.558;9.704;2023-02-01T12:56:01;4.90;99.90
27162;DHT22;54464;50.558;9.704;2023-02-01T12:58:27;4.90;99.90
27162;DHT22;54464;50.558;9.704;2023-02-01T13:01:07;4.90;99.90
27162;DHT22;54464;50.558;9.704;2023-02-01T13:03:38;4.90;99.90
27162;DHT22;54464;50.558;9.704;2023-02-01T13:06:19;4.90;99.90
27162;DHT22;54464;50.558;9.704;2023-02-01T13:09:24;4.90;99.90
27162;DHT22;54464;50.558;9.704;2023-02-01T13:11:54;4.90;99.90
27162;DHT22;54464;50.558;9.704;2023-02-01T13:16:59;4.90;99.90
27162;DHT22;54464;50.558;9.704;2023-02-01T13:19:43;4.90;99.90
27162;DHT22;54464;50.558;9.704;2023-02-01T13:22:19;4.90;99.90
27162;DHT22;54464;50.558;9.704;2023-02-01T13:24:50;5.00;99.90
27162;DHT22;54464;50.558;9.704;2023-02-01T13:27:17;5.00;99.90
27162;DHT22;54464;50.558;9.704;2023-02-01T13:30:03;5.00;99.90
27162;DHT22;54464;50.558;9.704;2023-02-01T13:43:14;5.10;99.90
27162;DHT22;54464;50.558;9.704;2023-02-01T13:45:50;5.10;99.90
27162;DHT22;54464;50.558;9.704;2023-02-01T13:48:29;5.10;99.90
27162;DHT22;54464;50.558;9.704;2023-02-01T13:50:58;5.10;99.90
27162;DHT22;54464;50.558;9.704;2023-02-01T13:53:33;5.10;99.90
27162;DHT22;54464;50.558;9.704;2023-02-01T13:56:04;5.10;99.90
27162;DHT22;54464;50.558;9.704;2023-02-01T13:58:36;5.10;99.90
27162;DHT22;54464;50.558;9.704;2023-02-01T14:03:54;5.10;99.90
27162;DHT22;54464;50.558;9.704;2023-02-01T14:11:51;5.10;99.90
27162;DHT22;54464;50.558;9.704;2023-02-01T14:19:24;5.10;99.90
27162;DHT22;54464;50.558;9.704;2023-02-01T14:21:52;5.10;99.90
27162;DHT22;54464;50.558;9.704;2023-02-01T14:26:49;5.10;99.90
27162;DHT22;54464;50.558;9.704;2023-02-01T14:34:39;5.10;99.90
27162;DHT22;54464;50.558;9.704;2023-02-01T14:40:03;5.20;99.90
27162;DHT22;54464;50.558;9.704;2023-02-01T14:56:04;5.30;99.90
27162;DHT22;54464;50.558;9.704;2023-02-01T15:01:46;5.30;99.90
27162;DHT22;54464;50.558;9.704;2023-02-01T15:04:18;5.30;99.90
27162;DHT22;54464;50.558;9.704;2023-02-01T15:06:54;5.30;99.90
27162;DHT22;54464;50.558;9.704;2023-02-01T15:12:29;5.30;99.90
27162;DHT22;54464;50.558;9.704;2023-02-01T15:15:13;5.30;99.90
27162;DHT22;54464;50.558;9.704;2023-02-01T15:17:40;5.30;99.90
27162;DHT22;54464;50.558;9.704;2023-02-01T15:20:26;5.30;99.90
27162;DHT22;54464;50.558;9.704;2023-02-01T15:22:59;5.30;99.90
27162;DHT22;54464;50.558;9.704;2023-02-01T15:25:30;5.30;99.90
27162;DHT22;54464;50.558;9.704;2023-02-01T15:27:56;5.30;99.90
27162;DHT22;54464;50.558;9.704;2023-02-01T15:30:27;5.30;99.90
27162;DHT22;54464;50.558;9.704;2023-02-01T15:33:17;5.40;99.90
27162;DHT22;54464;50.558;9.704;2023-02-01T15:35:49;5.30;99.90
27162;DHT22;54464;50.558;9.704;2023-02-01T15:43:49;5.30;99.90
27162;DHT22;54464;50.558;9.704;2023-02-01T15:46:39;5.30;99.90
27162;DHT22;54464;50.558;9.704;2023-02-01T15:49:20;5.30;99.90
27162;DHT22;54464;50.558;9.704;2023-02-01T15:51:50;5.40;99.90
27162;DHT22;54464;50.558;9.704;2023-02-01T15:54:24;5.30;99.90
27162;DHT22;54464;50.558;9.704;2023-02-01T15:56:53;5.30;99.90
27162;DHT22;54464;50.558;9.704;2023-02-01T15:59:22;5.30;99.90
27162;DHT22;54464;50.558;9.704;2023-02-01T16:01:49;5.30;99.90
27162;DHT22;54464;50.558;9.704;2023-02-01T16:06:54;5.40;99.90
27162;DHT22;54464;50.558;9.704;2023-02-01T16:09:34;5.30;99.90
27162;DHT22;54464;50.558;9.704;2023-02-01T16:12:02;5.30;99.90
27162;DHT22;54464;50.558;9.704;2023-02-01T16:14:29;5.30;99.90
27162;DHT22;54464;50.558;9.704;2023-02-01T16:16:56;5.30;99.90
27162;DHT22;54464;50.558;9.704;2023-02-01T16:19:22;5.30;99.90
27162;DHT22;54464;50.558;9.704;2023-02-01T16:21:56;5.30;99.90
27162;DHT22;54464;50.558;9.704;2023-02-01T16:24:21;5.30;99.90
27162;DHT22;54464;50.558;9.704;2023-02-01T16:26:50;5.30;99.90
27162;DHT22;54464;50.558;9.704;2023-02-01T16:29:15;5.30;99.90
27162;DHT22;54464;50.558;9.704;2023-02-01T16:31:42;5.20;99.90
27162;DHT22;54464;50.558;9.704;2023-02-01T16:34:15;5.20;99.90
27162;DHT22;54464;50.558;9.704;2023-02-01T16:36:47;5.20;99.90
27162;DHT22;54464;50.558;9.704;2023-02-01T16:39:18;5.20;99.90
27162;DHT22;54464;50.558;9.704;2023-02-01T16:41:44;5.10;99.90
27162;DHT22;54464;50.558;9.704;2023-02-01T16:44:10;5.20;99.90
27162;DHT22;54464;50.558;9.704;2023-02-01T16:46:42;5.20;99.90
27162;DHT22;54464;50.558;9.704;2023-02-01T16:49:23;5.10;99.90
27162;DHT22;54464;50.558;9.704;2023-02-01T16:51:51;5.10;99.90
27162;DHT22;54464;50.558;9.704;2023-02-01T16:54:20;5.10;99.90
27162;DHT22;54464;50.558;9.704;2023-02-01T16:56:47;5.10;99.90
27162;DHT22;54464;50.558;9.704;2023-02-01T16:59:13;5.10;99.90
27162;DHT22;54464;50.558;9.704;2023-02-01T17:01:39;5.10;99.90
27162;DHT22;54464;50.558;9.704;2023-02-01T17:04:07;5.10;99.90
27162;DHT22;54464;50.558;9.704;2023-02-01T17:06:35;5.10;99.90
27162;DHT22;54464;50.558;9.704;2023-02-01T17:09:05;5.20;99.90
27162;DHT22;54464;50.558;9.704;2023-02-01T17:11:31;5.20;99.90
27162;DHT22;54464;50.558;9.704;2023-02-01T17:14:07;5.20;99.90
27162;DHT22;54464;50.558;9.704;2023-02-01T17:16:39;5.20;99.90
27162;DHT22;54464;50.558;9.704;2023-02-01T17:19:10;5.20;99.90
27162;DHT22;54464;50.558;9.704;2023-02-01T17:21:52;5.20;99.90
27162;DHT22;54464;50.558;9.704;2023-02-01T17:24:22;5.20;99.90
27162;DHT22;54464;50.558;9.704;2023-02-01T17:26:48;5.20;99.90
27162;DHT22;54464;50.558;9.704;2023-02-01T17:29:16;5.20;99.90
27162;DHT22;54464;50.558;9.704;2023-02-01T17:31:44;5.20;99.90
27162;DHT22;54464;50.558;9.704;2023-02-01T17:34:12;5.20;99.90
27162;DHT22;54464;50.558;9.704;2023-02-01T17:36:40;5.20;99.90
27162;DHT22;54464;50.558;9.704;2023-02-01T17:39:07;5.20;99.90
27162;DHT22;54464;50.558;9.704;2023-02-01T17:41:33;5.20;99.90
27162;DHT22;54464;50.558;9.704;2023-02-01T17:43:59;5.20;99.90
27162;DHT22;54464;50.558;9.704;2023-02-01T17:46:24;5.20;99.90
27162;DHT22;54464;50.558;9.704;2023-02-01T17:48:54;5.20;99.90
27162;DHT22;54464;50.558;9.704;2023-02-01T17:51:22;5.10;99.90
27162;DHT22;54464;50.558;9.704;2023-02-01T17:53:49;5.20;99.90
27162;DHT22;54464;50.558;9.704;2023-02-01T17:56:17;5.20;99.90
27162;DHT22;54464;50.558;9.704;2023-02-01T17:58:43;5.10;99.90
27162;DHT22;54464;50.558;9.704;2023-02-01T18:01:21;5.20;99.90
27162;DHT22;54464;50.558;9.704;2023-02-01T18:03:47;5.10;99.90
27162;DHT22;54464;50.558;9.704;2023-02-01T18:06:14;5.10;99.90
27162;DHT22;54464;50.558;9.704;2023-02-01T18:08:41;5.10;99.90
27162;DHT22;54464;50.558;9.704;2023-02-01T18:11:18;5.10;99.90
27162;DHT22;54464;50.558;9.704;2023-02-01T18:13:44;5.10;99.90
27162;DHT22;54464;50.558;9.704;2023-02-01T18:16:26;5.20;99.90
27162;DHT22;54464;50.558;9.704;2023-02-01T18:18:52;5.10;99.90
27162;DHT22;54464;50.558;9.704;2023-02-01T18:21:20;5.10;99.90
27162;DHT22;54464;50.558;9.704;2023-02-01T18:23:46;5.10;99.90
27162;DHT22;54464;50.558;9.704;2023-02-01T18:26:15;5.10;99.90
27162;DHT22;54464;50.558;9.704;2023-02-01T18:28:41;5.10;99.90
27162;DHT22;54464;50.558;9.704;2023-02-01T18:31:25;5.10;99.90
27162;DHT22;54464;50.558;9.704;2023-02-01T18:33:53;5.20;99.90
27162;DHT22;54464;50.558;9.704;2023-02-01T18:36:19;5.30;99.90
27162;DHT22;54464;50.558;9.704;2023-02-01T18:38:45;5.20;99.90
27162;DHT22;54464;50.558;9.704;2023-02-01T18:41:19;5.20;99.90